Time;durP1;ratioP1;P1;durP2;ratioP2;P2;SDS_P1;SDS_P2;PMS_P1;PMS_P2;Temp;Humidity;BMP_temperature;BMP_pressure;BME280_temperature;BME280_humidity;BME280_pressure;Samples;Min_cycle;Max_cycle;Signal;HPM_P1;HPM_P2
2023/03/23 00:00:54;;;;;;;9.10;7.50;;;;;;;;;;80192;254;3031364;-31
2023/03/23 00:03:31;;;;;;;9.60;7.90;;;;;;;;;;80168;255;3027857;-31
2023/03/23 00:06:10;;;;;;;9.00;7.30;;;;;;;;;;80188;254;3027800;-31
2023/03/23 00:08:48;;;;;;;9.80;7.80;;;;;;;;;;80156;255;3030874;-31
2023/03/23 00:11:29;;;;;;;8.90;7.80;;;;;;;;;;80186;247;3031323;-31
2023/03/23 00:14:04;;;;;;;8.90;7.50;;;;;;;;;;80141;254;3030681;-31
2023/03/23 00:16:40;;;;;;;8.90;7.60;;;;;;;;;;81473;255;3011398;-31
2023/03/23 00:19:16;;;;;;;9.10;7.60;;;;;;;;;;80176;255;3031506;-31
2023/03/23 00:21:53;;;;;;;9.40;7.70;;;;;;;;;;80910;254;3012016;-31
2023/03/23 00:24:28;;;;;;;9.00;7.50;;;;;;;;;;79999;244;3039328;-31
2023/03/23 00:27:05;;;;;;;9.50;7.80;;;;;;;;;;80914;255;3013210;-31
2023/03/23 00:29:40;;;;;;;9.40;7.80;;;;;;;;;;80915;255;3011447;-31
2023/03/23 00:32:17;;;;;;;8.80;7.50;;;;;;;;;;80906;255;3013012;-31
2023/03/23 00:34:55;;;;;;;9.50;7.80;;;;;;;;;;80167;254;3028778;-31
2023/03/23 00:37:35;;;;;;;9.70;8.30;;;;;;;;;;80184;255;3027673;-31
2023/03/23 00:40:13;;;;;;;8.50;7.40;;;;;;;;;;80205;255;3031024;-31
2023/03/23 00:42:51;;;;;;;9.30;7.60;;;;;;;;;;80144;243;3031848;-31
2023/03/23 00:45:26;;;;;;;9.00;7.80;;;;;;;;;;80179;255;3028709;-31
2023/03/23 00:48:04;;;;;;;8.60;7.60;;;;;;;;;;80921;255;3011615;-31
2023/03/23 00:50:40;;;;;;;9.80;7.50;;;;;;;;;;80187;255;3027479;-31
2023/03/23 00:53:16;;;;;;;9.10;7.20;;;;;;;;;;80181;255;3030848;-31
2023/03/23 00:55:52;;;;;;;8.90;7.50;;;;;;;;;;80909;255;3011541;-31
2023/03/23 00:58:29;;;;;;;9.10;7.50;;;;;;;;;;80164;255;3031710;-31
2023/03/23 01:01:06;;;;;;;9.20;7.40;;;;;;;;;;80171;254;3028093;-31
2023/03/23 01:03:44;;;;;;;9.30;8.10;;;;;;;;;;80164;255;3027015;-31
2023/03/23 01:06:21;;;;;;;9.30;7.70;;;;;;;;;;80168;254;3031339;-31
2023/03/23 01:08:56;;;;;;;9.30;7.60;;;;;;;;;;80175;255;3031922;-31
2023/03/23 01:11:35;;;;;;;9.40;7.90;;;;;;;;;;80877;255;3011555;-31
2023/03/23 01:14:12;;;;;;;9.30;8.10;;;;;;;;;;80137;255;3028836;-31
2023/03/23 01:16:50;;;;;;;9.10;7.70;;;;;;;;;;80163;255;3029718;-31
2023/03/23 01:19:27;;;;;;;9.20;7.90;;;;;;;;;;80197;254;3030731;-31
2023/03/23 01:22:04;;;;;;;8.90;7.70;;;;;;;;;;80208;255;3031948;-31
2023/03/23 01:24:40;;;;;;;9.50;7.90;;;;;;;;;;80103;255;3030991;-31
2023/03/23 01:27:16;;;;;;;9.70;7.90;;;;;;;;;;80184;254;3029843;-31
2023/03/23 01:29:53;;;;;;;9.20;7.90;;;;;;;;;;80157;255;3030980;-31
2023/03/23 01:32:33;;;;;;;8.60;7.40;;;;;;;;;;80170;255;3031448;-31
2023/03/23 01:35:09;;;;;;;9.30;7.80;;;;;;;;;;80134;254;3030441;-31
2023/03/23 01:37:46;;;;;;;9.20;7.80;;;;;;;;;;80170;254;3029233;-31
2023/03/23 01:40:22;;;;;;;9.20;7.80;;;;;;;;;;80173;255;3030516;-31
2023/03/23 01:42:59;;;;;;;9.00;7.90;;;;;;;;;;80156;254;3031364;-31
2023/03/23 01:45:37;;;;;;;9.70;8.00;;;;;;;;;;80130;255;3028422;-31
2023/03/23 01:48:18;;;;;;;9.30;7.50;;;;;;;;;;80181;255;3027566;-31
2023/03/23 01:51:03;;;;;;;8.70;7.30;;;;;;;;;;80183;255;3031313;-31
2023/03/23 01:53:46;;;;;;;9.80;7.60;;;;;;;;;;80158;254;3031099;-31
2023/03/23 01:56:25;;;;;;;9.30;7.80;;;;;;;;;;80071;254;3027935;-31
2023/03/23 01:59:03;;;;;;;9.40;7.60;;;;;;;;;;80125;254;3027824;-31
2023/03/23 02:01:44;;;;;;;9.10;7.70;;;;;;;;;;80093;256;3030821;-31
2023/03/23 02:04:22;;;;;;;9.40;7.90;;;;;;;;;;80187;243;3031386;-31
2023/03/23 02:07:01;;;;;;;9.20;7.40;;;;;;;;;;80197;255;3034195;-31
2023/03/23 02:09:38;;;;;;;9.40;7.90;;;;;;;;;;80171;254;3027342;-31
2023/03/23 02:12:12;;;;;;;9.40;7.70;;;;;;;;;;80143;255;3030784;-31
2023/03/23 02:14:45;;;;;;;9.30;7.80;;;;;;;;;;81432;255;3011468;-31
2023/03/23 02:17:31;;;;;;;9.70;7.70;;;;;;;;;;80164;255;3028521;-31
2023/03/23 02:20:23;;;;;;;9.20;7.80;;;;;;;;;;80206;254;3028453;-31
2023/03/23 02:23:35;;;;;;;9.40;7.40;;;;;;;;;;80163;255;3030533;-31
2023/03/23 02:26:25;;;;;;;9.10;7.80;;;;;;;;;;80129;306;3032077;-31
2023/03/23 02:29:42;;;;;;;8.50;7.50;;;;;;;;;;80181;254;3028276;-31
2023/03/23 02:32:39;;;;;;;9.20;7.70;;;;;;;;;;80197;255;3027759;-31
2023/03/23 02:35:18;;;;;;;8.60;7.50;;;;;;;;;;80166;255;3031086;-31
2023/03/23 02:37:59;;;;;;;9.10;7.70;;;;;;;;;;80175;254;3031365;-31
2023/03/23 02:40:42;;;;;;;9.10;7.60;;;;;;;;;;80176;254;3028118;-31
2023/03/23 02:43:22;;;;;;;9.10;7.50;;;;;;;;;;80167;254;3027052;-31
2023/03/23 02:46:00;;;;;;;9.50;7.90;;;;;;;;;;80152;254;3030434;-31
2023/03/23 02:48:35;;;;;;;9.10;7.70;;;;;;;;;;80153;254;3031102;-31
2023/03/23 02:51:11;;;;;;;8.90;7.30;;;;;;;;;;80182;254;3028306;-31
2023/03/23 02:53:49;;;;;;;9.10;7.30;;;;;;;;;;80190;254;3027093;-31
2023/03/23 02:56:28;;;;;;;9.20;7.70;;;;;;;;;;80130;254;3030434;-31
2023/03/23 02:59:05;;;;;;;8.50;7.20;;;;;;;;;;80180;254;3031788;-31
2023/03/23 03:02:01;;;;;;;9.60;7.70;;;;;;;;;;80190;255;3028098;-31
2023/03/23 03:04:44;;;;;;;9.50;7.50;;;;;;;;;;80173;254;3027867;-31
2023/03/23 03:07:54;;;;;;;9.30;7.60;;;;;;;;;;80170;254;3031211;-31
2023/03/23 03:10:37;;;;;;;9.00;7.80;;;;;;;;;;80140;255;3031759;-31
2023/03/23 03:13:18;;;;;;;9.10;7.20;;;;;;;;;;80190;254;3028615;-31
2023/03/23 03:16:02;;;;;;;8.60;7.10;;;;;;;;;;80150;254;3027292;-31
2023/03/23 03:18:45;;;;;;;9.00;7.30;;;;;;;;;;80148;255;3037311;-31
2023/03/23 03:21:25;;;;;;;9.40;7.70;;;;;;;;;;80115;254;3031220;-31
2023/03/23 03:24:03;;;;;;;9.00;7.50;;;;;;;;;;80195;255;3028058;-31
2023/03/23 03:26:47;;;;;;;8.80;7.40;;;;;;;;;;80140;255;3027731;-31
2023/03/23 03:29:22;;;;;;;;;;;;;;;;;;80196;254;3030558;-31
2023/03/23 03:32:01;;;;;;;8.60;7.10;;;;;;;;;;80939;254;3011536;-31
2023/03/23 03:34:38;;;;;;;9.00;7.50;;;;;;;;;;80142;254;3032094;-31
2023/03/23 03:37:14;;;;;;;8.70;7.30;;;;;;;;;;80150;254;3028676;-31
2023/03/23 03:39:51;;;;;;;9.20;7.40;;;;;;;;;;80033;257;3027821;-31
2023/03/23 03:42:28;;;;;;;9.50;7.60;;;;;;;;;;80170;254;3031174;-31
2023/03/23 03:45:07;;;;;;;8.50;7.10;;;;;;;;;;80149;254;3031671;-31
2023/03/23 03:47:44;;;;;;;8.70;7.30;;;;;;;;;;80151;254;3028752;-31
2023/03/23 03:50:19;;;;;;;8.90;7.10;;;;;;;;;;80176;255;3027452;-31
2023/03/23 03:52:57;;;;;;;9.10;7.20;;;;;;;;;;80912;254;3011439;-31
2023/03/23 03:55:40;;;;;;;9.50;7.20;;;;;;;;;;80182;254;3030966;-31
2023/03/23 03:58:16;;;;;;;8.60;7.00;;;;;;;;;;80127;254;3031517;-31
2023/03/23 04:00:52;;;;;;;9.40;7.40;;;;;;;;;;80164;255;3029052;-31
2023/03/23 04:03:29;;;;;;;8.80;7.10;;;;;;;;;;80164;255;3027224;-31
2023/03/23 04:06:07;;;;;;;8.70;7.10;;;;;;;;;;80192;255;3031245;-31
2023/03/23 04:08:46;;;;;;;9.20;7.20;;;;;;;;;;80174;254;3031509;-31
2023/03/23 04:11:23;;;;;;;9.40;7.50;;;;;;;;;;80155;255;3028747;-31
2023/03/23 04:14:02;;;;;;;8.40;7.10;;;;;;;;;;80135;262;3027085;-31
2023/03/23 04:16:38;;;;;;;8.30;7.20;;;;;;;;;;80133;255;3030659;-31
2023/03/23 04:19:14;;;;;;;9.70;7.70;;;;;;;;;;80122;254;3031884;-31
2023/03/23 04:21:52;;;;;;;9.60;7.40;;;;;;;;;;80177;255;3028377;-31
2023/03/23 04:24:31;;;;;;;9.30;7.30;;;;;;;;;;80196;243;3027376;-31
2023/03/23 04:27:06;;;;;;;9.60;7.40;;;;;;;;;;80185;255;3030874;-31
2023/03/23 04:29:41;;;;;;;9.10;7.30;;;;;;;;;;80123;255;3031606;-31
2023/03/23 04:32:19;;;;;;;8.70;7.10;;;;;;;;;;80900;255;3011203;-31
2023/03/23 04:34:56;;;;;;;8.90;7.30;;;;;;;;;;80178;255;3028374;-31
2023/03/23 04:37:34;;;;;;;9.50;7.30;;;;;;;;;;80164;255;3027662;-31
2023/03/23 04:40:14;;;;;;;10.60;7.90;;;;;;;;;;80145;255;3031458;-31
2023/03/23 04:42:51;;;;;;;10.20;7.30;;;;;;;;;;80182;255;3031081;-31
2023/03/23 04:45:28;;;;;;;9.90;7.30;;;;;;;;;;80147;255;3027986;-31
2023/03/23 04:48:06;;;;;;;9.20;7.20;;;;;;;;;;80156;254;3028141;-31
2023/03/23 04:50:40;;;;;;;9.50;7.20;;;;;;;;;;80178;255;3036912;-31
2023/03/23 04:53:17;;;;;;;9.10;7.10;;;;;;;;;;81447;255;3011558;-31
2023/03/23 04:55:55;;;;;;;8.70;7.10;;;;;;;;;;80174;255;3028862;-31
2023/03/23 04:58:33;;;;;;;9.70;6.90;;;;;;;;;;80163;254;3028340;-32
2023/03/23 05:01:07;;;;;;;9.20;7.10;;;;;;;;;;80179;254;3030479;-32
2023/03/23 05:03:41;;;;;;;;;;;;;;;;;;81464;255;3011556;-32
2023/03/23 05:06:16;;;;;;;9.40;7.40;;;;;;;;;;80185;254;3028450;-32
2023/03/23 05:08:50;;;;;;;;;;;;;;;;;;81433;254;3011497;-32
2023/03/23 05:11:27;;;;;;;9.40;7.00;;;;;;;;;;80208;255;3030517;-32
2023/03/23 05:14:08;;;;;;;9.20;6.70;;;;;;;;;;80176;255;3031681;-32
2023/03/23 05:16:48;;;;;;;8.60;6.90;;;;;;;;;;80156;255;3028468;-32
2023/03/23 05:19:26;;;;;;;9.10;6.90;;;;;;;;;;80139;254;3027679;-32
2023/03/23 05:22:05;;;;;;;8.40;6.90;;;;;;;;;;80152;255;3030437;-32
2023/03/23 05:24:40;;;;;;;8.30;6.50;;;;;;;;;;80127;243;3031943;-32
2023/03/23 05:27:14;;;;;;;9.20;6.70;;;;;;;;;;81455;255;3012525;-32
2023/03/23 05:29:49;;;;;;;9.40;7.40;;;;;;;;;;80161;254;3027994;-32
2023/03/23 05:32:30;;;;;;;8.50;7.00;;;;;;;;;;80905;254;3011407;-32
2023/03/23 05:35:06;;;;;;;8.00;6.70;;;;;;;;;;80160;263;3030548;-32
2023/03/23 05:37:43;;;;;;;9.00;6.80;;;;;;;;;;80154;255;3031120;-32
2023/03/23 05:40:21;;;;;;;8.40;6.70;;;;;;;;;;80156;243;3027938;-32
2023/03/23 05:42:57;;;;;;;9.10;6.80;;;;;;;;;;80195;254;3027914;-32
2023/03/23 05:45:32;;;;;;;7.90;6.70;;;;;;;;;;80184;255;3031214;-32
2023/03/23 05:48:08;;;;;;;8.40;6.60;;;;;;;;;;80904;255;3012671;-32
2023/03/23 05:50:46;;;;;;;9.50;7.10;;;;;;;;;;80884;255;3011502;-32
2023/03/23 05:53:21;;;;;;;8.70;6.80;;;;;;;;;;80140;255;3031441;-32
2023/03/23 05:56:01;;;;;;;8.90;7.00;;;;;;;;;;80897;255;3011757;-32
2023/03/23 05:58:35;;;;;;;8.80;6.80;;;;;;;;;;80161;254;3027880;-32
2023/03/23 06:01:13;;;;;;;8.40;7.00;;;;;;;;;;81382;255;3011457;-32
2023/03/23 06:03:53;;;;;;;8.60;6.50;;;;;;;;;;80166;255;3030769;-32
2023/03/23 06:06:31;;;;;;;9.10;6.70;;;;;;;;;;80157;258;3031460;-32
2023/03/23 06:09:06;;;;;;;8.80;6.90;;;;;;;;;;80152;254;3028279;-32
2023/03/23 06:11:47;;;;;;;8.10;6.50;;;;;;;;;;80835;255;3011549;-32
2023/03/23 06:14:23;;;;;;;8.10;6.80;;;;;;;;;;80171;255;3027347;-32
2023/03/23 06:17:00;;;;;;;9.20;6.70;;;;;;;;;;80166;255;3031096;-32
2023/03/23 06:19:36;;;;;;;7.80;6.20;;;;;;;;;;80156;255;3031108;-32
2023/03/23 06:22:13;;;;;;;8.40;6.60;;;;;;;;;;80107;254;3028428;-32
2023/03/23 06:24:51;;;;;;;8.70;7.00;;;;;;;;;;80182;254;3027644;-32
2023/03/23 06:27:28;;;;;;;8.50;6.50;;;;;;;;;;80183;255;3030919;-32
2023/03/23 06:30:04;;;;;;;9.80;6.80;;;;;;;;;;80173;255;3031688;-32
2023/03/23 06:32:40;;;;;;;9.10;6.70;;;;;;;;;;80247;259;3034696;-32
2023/03/23 06:35:19;;;;;;;8.90;6.70;;;;;;;;;;80162;254;3027073;-32
2023/03/23 06:38:01;;;;;;;7.70;6.30;;;;;;;;;;80059;255;3030964;-31
2023/03/23 06:40:36;;;;;;;8.10;6.60;;;;;;;;;;80097;255;3031568;-31
2023/03/23 06:43:14;;;;;;;8.60;6.50;;;;;;;;;;80139;255;3036421;-31
2023/03/23 06:45:50;;;;;;;8.80;6.50;;;;;;;;;;80025;256;3027463;-31
2023/03/23 06:48:28;;;;;;;8.50;6.60;;;;;;;;;;80126;254;3031248;-31
2023/03/23 06:51:05;;;;;;;9.10;6.50;;;;;;;;;;80139;255;3031944;-31
2023/03/23 06:53:41;;;;;;;9.20;6.70;;;;;;;;;;80158;254;3028266;-31
2023/03/23 06:56:19;;;;;;;7.90;6.40;;;;;;;;;;80170;255;3027428;-31
2023/03/23 06:58:53;;;;;;;8.30;6.10;;;;;;;;;;80154;255;3030377;-31
2023/03/23 07:01:30;;;;;;;8.30;6.50;;;;;;;;;;80848;255;3011259;-31
2023/03/23 07:04:06;;;;;;;8.40;6.20;;;;;;;;;;80885;255;3013437;-31
2023/03/23 07:06:40;;;;;;;8.40;6.50;;;;;;;;;;80939;274;3012681;-31
2023/03/23 07:09:16;;;;;;;8.70;6.70;;;;;;;;;;81447;255;3011163;-31
2023/03/23 07:11:53;;;;;;;8.70;6.20;;;;;;;;;;80126;255;3028638;-31
2023/03/23 07:14:30;;;;;;;8.50;6.30;;;;;;;;;;80162;254;3027831;-31
2023/03/23 07:17:07;;;;;;;7.90;6.40;;;;;;;;;;80153;254;3030990;-31
2023/03/23 07:19:42;;;;;;;9.20;6.50;;;;;;;;;;80164;255;3031592;-31
2023/03/23 07:22:19;;;;;;;9.20;6.10;;;;;;;;;;80846;254;3012426;-31
2023/03/23 07:24:54;;;;;;;8.10;6.10;;;;;;;;;;80168;254;3028083;-31
2023/03/23 07:27:34;;;;;;;8.30;6.60;;;;;;;;;;80892;254;3011620;-31
2023/03/23 07:30:10;;;;;;;8.20;6.20;;;;;;;;;;80200;254;3027990;-31
2023/03/23 07:32:44;;;;;;;9.20;6.70;;;;;;;;;;80083;255;3031156;-31
2023/03/23 07:35:18;;;;;;;8.20;5.90;;;;;;;;;;81430;254;3011567;-31
2023/03/23 07:37:54;;;;;;;8.70;6.40;;;;;;;;;;80154;255;3028346;-31
2023/03/23 07:40:35;;;;;;;8.70;6.30;;;;;;;;;;80149;255;3027784;-31
2023/03/23 07:43:11;;;;;;;7.90;6.20;;;;;;;;;;80119;254;3031054;-31
2023/03/23 07:45:51;;;;;;;8.10;6.30;;;;;;;;;;80163;255;3032031;-31
2023/03/23 07:48:30;;;;;;;8.60;6.40;;;;;;;;;;80188;254;3028193;-31
2023/03/23 07:51:04;;;;;;;8.30;6.20;;;;;;;;;;80165;255;3027983;-31
2023/03/23 07:53:39;;;;;;;8.40;6.20;;;;;;;;;;81280;255;3011435;-31
2023/03/23 07:56:14;;;;;;;7.90;6.00;;;;;;;;;;80152;255;3032020;-31
2023/03/23 07:58:48;;;;;;;8.50;6.10;;;;;;;;;;80166;255;3027871;-31
2023/03/23 08:01:23;;;;;;;9.10;6.60;;;;;;;;;;81441;255;3011489;-31
2023/03/23 08:03:59;;;;;;;9.00;6.20;;;;;;;;;;80114;255;3030382;-31
2023/03/23 08:06:36;;;;;;;8.90;6.40;;;;;;;;;;80146;254;3031224;-31
2023/03/23 08:09:10;;;;;;;7.80;6.00;;;;;;;;;;80130;255;3028516;-31
2023/03/23 08:11:42;;;;;;;8.10;5.80;;;;;;;;;;81277;256;3011501;-31
2023/03/23 08:14:17;;;;;;;8.80;6.30;;;;;;;;;;80141;255;3030989;-31
2023/03/23 08:16:55;;;;;;;7.70;5.80;;;;;;;;;;80904;254;3011384;-31
2023/03/23 08:19:36;;;;;;;7.90;5.60;;;;;;;;;;80152;255;3031658;-31
2023/03/23 08:22:15;;;;;;;9.20;6.10;;;;;;;;;;80184;255;3028518;-31
2023/03/23 08:24:52;;;;;;;8.60;6.10;;;;;;;;;;80179;246;3027193;-31
2023/03/23 08:27:32;;;;;;;10.20;5.90;;;;;;;;;;80155;254;3031103;-31
2023/03/23 08:30:08;;;;;;;8.80;6.00;;;;;;;;;;80153;255;3031585;-31
2023/03/23 08:32:47;;;;;;;9.20;6.00;;;;;;;;;;80159;255;3028515;-31
2023/03/23 08:35:22;;;;;;;7.30;5.50;;;;;;;;;;80114;254;3033931;-31
2023/03/23 08:37:59;;;;;;;7.80;5.80;;;;;;;;;;80737;256;3011248;-31
2023/03/23 08:40:37;;;;;;;8.80;5.70;;;;;;;;;;80134;254;3030866;-31
2023/03/23 08:43:13;;;;;;;7.80;5.60;;;;;;;;;;80143;254;3031331;-31
2023/03/23 08:45:52;;;;;;;9.20;5.80;;;;;;;;;;80205;255;3034541;-31
2023/03/23 08:48:26;;;;;;;7.80;5.80;;;;;;;;;;80154;255;3027704;-31
2023/03/23 08:51:03;;;;;;;8.50;5.70;;;;;;;;;;81469;255;3011401;-31
2023/03/23 08:53:41;;;;;;;7.30;5.20;;;;;;;;;;80115;255;3031502;-31
2023/03/23 08:56:17;;;;;;;8.10;5.70;;;;;;;;;;80158;255;3028077;-31
2023/03/23 08:58:54;;;;;;;7.20;5.30;;;;;;;;;;80872;274;3011533;-31
2023/03/23 09:01:32;;;;;;;8.10;5.50;;;;;;;;;;80197;254;3027800;-31
2023/03/23 09:04:08;;;;;;;8.20;5.90;;;;;;;;;;80130;254;3030819;-31
2023/03/23 09:06:46;;;;;;;8.60;5.60;;;;;;;;;;80155;255;3031511;-31
2023/03/23 09:09:24;;;;;;;7.70;5.30;;;;;;;;;;80191;255;3028375;-31
2023/03/23 09:11:59;;;;;;;8.30;5.50;;;;;;;;;;80155;255;3027504;-31
2023/03/23 09:14:38;;;;;;;7.60;5.50;;;;;;;;;;80127;255;3030583;-31
2023/03/23 09:17:15;;;;;;;8.00;5.30;;;;;;;;;;80185;255;3031522;-31
2023/03/23 09:19:50;;;;;;;6.80;5.20;;;;;;;;;;80176;255;3027905;-31
2023/03/23 09:22:27;;;;;;;7.20;5.00;;;;;;;;;;80875;254;3011567;-31
2023/03/23 09:25:04;;;;;;;7.60;5.30;;;;;;;;;;80127;254;3027696;-31
2023/03/23 09:27:40;;;;;;;7.20;5.10;;;;;;;;;;80009;256;3030467;-31
2023/03/23 09:30:18;;;;;;;7.00;5.20;;;;;;;;;;80134;254;3031461;-31
2023/03/23 09:32:55;;;;;;;7.10;5.00;;;;;;;;;;80141;272;3027953;-31
2023/03/23 09:35:36;;;;;;;7.70;5.20;;;;;;;;;;80124;254;3027311;-31
2023/03/23 09:38:13;;;;;;;6.70;4.90;;;;;;;;;;80169;254;3030996;-31
2023/03/23 09:40:55;;;;;;;7.30;4.90;;;;;;;;;;80169;254;3031149;-31
2023/03/23 09:43:53;;;;;;;7.60;5.00;;;;;;;;;;80148;254;3028409;-31
2023/03/23 09:46:50;;;;;;;7.50;5.10;;;;;;;;;;80159;255;3027281;-31
2023/03/23 09:49:31;;;;;;;7.50;5.00;;;;;;;;;;80155;254;3030527;-31
2023/03/23 09:52:12;;;;;;;7.20;4.80;;;;;;;;;;80162;254;3031637;-31
2023/03/23 09:54:52;;;;;;;7.20;4.90;;;;;;;;;;80192;254;3028127;-31
2023/03/23 09:57:34;;;;;;;7.40;5.00;;;;;;;;;;80144;255;3033508;-31
2023/03/23 10:00:19;;;;;;;7.40;5.20;;;;;;;;;;80171;255;3031192;-31
2023/03/23 10:03:05;;;;;;;6.50;4.70;;;;;;;;;;80165;255;3031823;-31
2023/03/23 10:05:42;;;;;;;6.90;4.90;;;;;;;;;;80104;274;3027948;-31
2023/03/23 10:08:20;;;;;;;6.80;5.00;;;;;;;;;;80164;243;3027703;-31
2023/03/23 10:11:04;;;;;;;6.70;4.60;;;;;;;;;;80160;255;3029769;-31
2023/03/23 10:14:02;;;;;;;6.40;4.90;;;;;;;;;;80127;255;3031090;-31
2023/03/23 10:16:41;;;;;;;7.10;5.00;;;;;;;;;;80109;254;3028701;-31
2023/03/23 10:19:25;;;;;;;6.70;4.90;;;;;;;;;;80173;254;3027153;-31
2023/03/23 10:22:06;;;;;;;7.40;5.10;;;;;;;;;;80216;254;3031146;-31
2023/03/23 10:24:50;;;;;;;6.50;4.60;;;;;;;;;;80201;255;3031470;-31
2023/03/23 10:27:33;;;;;;;6.90;4.60;;;;;;;;;;80133;255;3027940;-31
2023/03/23 10:30:18;;;;;;;6.10;4.80;;;;;;;;;;80204;255;3027401;-31
2023/03/23 10:32:57;;;;;;;6.50;4.50;;;;;;;;;;80148;254;3030488;-31
2023/03/23 10:35:36;;;;;;;6.80;4.40;;;;;;;;;;80150;254;3031510;-31
2023/03/23 10:38:18;;;;;;;6.70;4.60;;;;;;;;;;80006;255;3035963;-31
2023/03/23 10:40:59;;;;;;;6.10;4.20;;;;;;;;;;80158;254;3027442;-31
2023/03/23 10:43:36;;;;;;;6.80;4.20;;;;;;;;;;80191;254;3031395;-31
2023/03/23 10:46:34;;;;;;;6.20;4.10;;;;;;;;;;80144;254;3032162;-31
2023/03/23 10:49:14;;;;;;;6.60;4.50;;;;;;;;;;80171;255;3028880;-31
2023/03/23 10:52:00;;;;;;;5.80;3.80;;;;;;;;;;80160;255;3027365;-31
2023/03/23 10:54:47;;;;;;;6.20;4.00;;;;;;;;;;80195;254;3030772;-31
2023/03/23 10:57:29;;;;;;;5.70;3.80;;;;;;;;;;80147;254;3031877;-31
2023/03/23 11:00:08;;;;;;;6.00;3.80;;;;;;;;;;80176;255;3028386;-31
2023/03/23 11:02:47;;;;;;;6.10;3.90;;;;;;;;;;80151;254;3027094;-31
2023/03/23 11:05:28;;;;;;;6.00;3.60;;;;;;;;;;80170;254;3030381;-31
2023/03/23 11:08:06;;;;;;;5.40;3.70;;;;;;;;;;80147;254;3031262;-31
2023/03/23 11:10:48;;;;;;;5.70;3.40;;;;;;;;;;80151;254;3027932;-31
2023/03/23 11:13:29;;;;;;;5.90;3.70;;;;;;;;;;80159;254;3027889;-31
2023/03/23 11:16:05;;;;;;;5.90;3.70;;;;;;;;;;80155;254;3030938;-31
2023/03/23 11:18:43;;;;;;;5.30;3.50;;;;;;;;;;80151;255;3031728;-31
2023/03/23 11:21:20;;;;;;;5.70;3.50;;;;;;;;;;80178;255;3028858;-31
2023/03/23 11:23:57;;;;;;;5.40;3.50;;;;;;;;;;80154;254;3027463;-31
2023/03/23 11:26:33;;;;;;;5.10;3.30;;;;;;;;;;80188;254;3030733;-31
2023/03/23 11:29:16;;;;;;;5.00;3.30;;;;;;;;;;80161;254;3032483;-31
2023/03/23 11:31:52;;;;;;;5.40;3.40;;;;;;;;;;80174;255;3028626;-31
2023/03/23 11:34:35;;;;;;;5.10;3.20;;;;;;;;;;80182;254;3026952;-31
2023/03/23 11:37:15;;;;;;;5.10;3.20;;;;;;;;;;80138;255;3030804;-31
2023/03/23 11:39:58;;;;;;;5.10;3.00;;;;;;;;;;80151;262;3038127;-31
2023/03/23 11:42:44;;;;;;;5.10;3.20;;;;;;;;;;80041;255;3028737;-33
2023/03/23 11:45:22;;;;;;;4.90;3.20;;;;;;;;;;80056;256;3027925;-30
2023/03/23 11:48:09;;;;;;;4.80;2.80;;;;;;;;;;80071;255;3031142;-30
2023/03/23 11:50:55;;;;;;;5.30;2.90;;;;;;;;;;80071;255;3032006;-31
2023/03/23 11:53:46;;;;;;;5.40;2.90;;;;;;;;;;80060;254;3028254;-31
2023/03/23 11:56:29;;;;;;;5.30;2.60;;;;;;;;;;80091;255;3027851;-32
2023/03/23 11:59:04;;;;;;;5.90;2.80;;;;;;;;;;80158;255;3030773;-32
2023/03/23 12:01:50;;;;;;;5.20;2.70;;;;;;;;;;80120;255;3031108;-31
2023/03/23 12:04:53;;;;;;;4.90;2.60;;;;;;;;;;80160;255;3028422;-31
2023/03/23 12:07:50;;;;;;;4.90;2.80;;;;;;;;;;80102;256;3027943;-31
2023/03/23 12:10:35;;;;;;;5.00;2.50;;;;;;;;;;80103;255;3036387;-32
2023/03/23 12:13:29;;;;;;;5.00;2.60;;;;;;;;;;80178;254;3031544;-32
2023/03/23 12:16:15;;;;;;;5.20;2.50;;;;;;;;;;80061;255;3028122;-32
2023/03/23 12:18:57;;;;;;;4.60;2.40;;;;;;;;;;80090;255;3027893;-30
2023/03/23 12:21:42;;;;;;;4.40;2.60;;;;;;;;;;80084;256;3030601;-30
2023/03/23 12:24:29;;;;;;;4.30;2.30;;;;;;;;;;80111;255;3031874;-31
2023/03/23 12:27:12;;;;;;;4.10;2.30;;;;;;;;;;79988;255;3028822;-32
2023/03/23 12:30:16;;;;;;;5.00;2.50;;;;;;;;;;80104;255;3027664;-30
2023/03/23 12:33:14;;;;;;;5.00;2.60;;;;;;;;;;80108;255;3030785;-30
2023/03/23 12:36:03;;;;;;;4.40;2.30;;;;;;;;;;80128;255;3031119;-31
2023/03/23 12:39:03;;;;;;;4.50;2.30;;;;;;;;;;80051;255;3028510;-31
2023/03/23 12:41:46;;;;;;;5.00;2.60;;;;;;;;;;80115;255;3033508;-31
2023/03/23 12:44:30;;;;;;;5.10;2.40;;;;;;;;;;80116;255;3030668;-31
2023/03/23 12:47:34;;;;;;;4.60;2.40;;;;;;;;;;80137;255;3031234;-31
2023/03/23 12:50:17;;;;;;;4.60;2.30;;;;;;;;;;80030;255;3027908;-32
2023/03/23 12:52:58;;;;;;;4.40;2.40;;;;;;;;;;80118;255;3028529;-32
2023/03/23 12:55:41;;;;;;;4.00;2.10;;;;;;;;;;80096;255;3030896;-31
2023/03/23 12:58:22;;;;;;;4.60;2.20;;;;;;;;;;80081;254;3031587;-32
2023/03/23 13:01:04;;;;;;;4.30;2.20;;;;;;;;;;80127;255;3028702;-31
2023/03/23 13:03:45;;;;;;;4.30;2.20;;;;;;;;;;80132;255;3027503;-31
2023/03/23 13:06:26;;;;;;;6.00;2.30;;;;;;;;;;80100;255;3031237;-33
2023/03/23 13:09:06;;;;;;;4.00;2.20;;;;;;;;;;80060;254;3031375;-32
2023/03/23 13:11:44;;;;;;;4.40;2.00;;;;;;;;;;79982;256;3028355;-32
2023/03/23 13:14:38;;;;;;;4.30;2.20;;;;;;;;;;80142;255;3027699;-32
2023/03/23 13:17:26;;;;;;;3.90;2.20;;;;;;;;;;80081;255;3031844;-32
2023/03/23 13:20:32;;;;;;;4.10;2.10;;;;;;;;;;80087;254;3031618;-33
2023/03/23 13:23:12;;;;;;;4.30;2.20;;;;;;;;;;80154;255;3034278;-33
2023/03/23 13:25:56;;;;;;;4.00;2.20;;;;;;;;;;80092;254;3027376;-32
2023/03/23 13:28:33;;;;;;;4.50;2.10;;;;;;;;;;80085;255;3031456;-31
2023/03/23 13:31:16;;;;;;;4.30;2.20;;;;;;;;;;80069;255;3031289;-33
2023/03/23 13:33:54;;;;;;;4.90;2.30;;;;;;;;;;80088;255;3027972;-33
2023/03/23 13:36:34;;;;;;;4.90;2.20;;;;;;;;;;80077;259;3027572;-32
2023/03/23 13:39:23;;;;;;;4.90;2.20;;;;;;;;;;80106;313;3031917;-32
2023/03/23 13:42:20;;;;;;;4.30;2.20;;;;;;;;;;80082;254;3031614;-31
2023/03/23 13:45:21;;;;;;;4.40;2.20;;;;;;;;;;79961;256;3028263;-31
2023/03/23 13:48:21;;;;;;;4.90;2.20;;;;;;;;;;80034;308;3027328;-32
2023/03/23 13:50:59;;;;;;;3.90;2.00;;;;;;;;;;80126;256;3031147;-32
2023/03/23 13:53:47;;;;;;;4.20;2.20;;;;;;;;;;80081;256;3036848;-32
2023/03/23 13:56:35;;;;;;;3.70;2.10;;;;;;;;;;80086;256;3028489;-32
2023/03/23 13:59:28;;;;;;;5.00;2.10;;;;;;;;;;80073;256;3027865;-32
2023/03/23 14:02:34;;;;;;;5.00;1.90;;;;;;;;;;80035;256;3030879;-32
2023/03/23 14:05:33;;;;;;;4.70;2.10;;;;;;;;;;80050;256;3031576;-32
2023/03/23 14:08:22;;;;;;;4.00;2.00;;;;;;;;;;80094;256;3028861;-32
2023/03/23 14:11:02;;;;;;;4.70;2.10;;;;;;;;;;80013;256;3027884;-32
2023/03/23 14:13:58;;;;;;;3.90;2.00;;;;;;;;;;80049;255;3030510;-32
2023/03/23 14:16:40;;;;;;;4.00;2.00;;;;;;;;;;80062;256;3031473;-32
2023/03/23 14:19:26;;;;;;;4.70;2.00;;;;;;;;;;80061;256;3028498;-32
2023/03/23 14:22:03;;;;;;;4.20;1.90;;;;;;;;;;80041;314;3027257;-32
2023/03/23 14:24:44;;;;;;;4.30;2.00;;;;;;;;;;80047;256;3030668;-32
2023/03/23 14:27:22;;;;;;;4.40;2.00;;;;;;;;;;80057;255;3031900;-32
2023/03/23 14:30:10;;;;;;;4.50;2.10;;;;;;;;;;80045;256;3028139;-32
2023/03/23 14:32:45;;;;;;;4.40;1.90;;;;;;;;;;80050;256;3027099;-32
2023/03/23 14:35:26;;;;;;;4.90;2.10;;;;;;;;;;80074;256;3031081;-32
2023/03/23 14:38:00;;;;;;;3.90;2.10;;;;;;;;;;78979;256;3032865;-32
2023/03/23 14:40:39;;;;;;;4.20;2.00;;;;;;;;;;80817;256;3012795;-32
2023/03/23 14:43:16;;;;;;;4.10;1.90;;;;;;;;;;80078;256;3028183;-32
2023/03/23 14:45:59;;;;;;;4.40;2.10;;;;;;;;;;80071;259;3027473;-32
2023/03/23 14:48:33;;;;;;;3.60;1.70;;;;;;;;;;80090;255;3030683;-32
2023/03/23 14:51:08;;;;;;;3.50;1.70;;;;;;;;;;81361;255;3012009;-32
2023/03/23 14:53:44;;;;;;;3.60;1.90;;;;;;;;;;80048;256;3028718;-32
2023/03/23 14:56:22;;;;;;;4.20;2.10;;;;;;;;;;80051;256;3027480;-32
2023/03/23 14:59:02;;;;;;;3.70;2.10;;;;;;;;;;80061;256;3031387;-32
2023/03/23 15:01:43;;;;;;;4.30;1.90;;;;;;;;;;80065;256;3031429;-32
2023/03/23 15:04:19;;;;;;;3.80;2.00;;;;;;;;;;80028;256;3028394;-32
2023/03/23 15:07:00;;;;;;;3.80;2.00;;;;;;;;;;80080;256;3027975;-32
2023/03/23 15:09:39;;;;;;;4.00;2.00;;;;;;;;;;80081;256;3030846;-32
2023/03/23 15:12:28;;;;;;;4.70;2.10;;;;;;;;;;80055;256;3032084;-32
2023/03/23 15:15:07;;;;;;;4.30;2.00;;;;;;;;;;80058;256;3029497;-32
2023/03/23 15:17:48;;;;;;;4.20;2.10;;;;;;;;;;80080;256;3028056;-32
2023/03/23 15:20:27;;;;;;;4.10;2.10;;;;;;;;;;80044;256;3031015;-32
2023/03/23 15:23:15;;;;;;;3.80;2.00;;;;;;;;;;80089;256;3031709;-32
2023/03/23 15:25:57;;;;;;;3.60;1.90;;;;;;;;;;80079;256;3034330;-32
2023/03/23 15:28:40;;;;;;;4.50;2.20;;;;;;;;;;80065;256;3027195;-32
2023/03/23 15:31:15;;;;;;;4.40;2.10;;;;;;;;;;80077;256;3031236;-32
2023/03/23 15:33:59;;;;;;;4.20;2.10;;;;;;;;;;80777;256;3011878;-32
2023/03/23 15:36:36;;;;;;;3.90;2.10;;;;;;;;;;80070;256;3031530;-32
2023/03/23 15:39:12;;;;;;;4.30;2.00;;;;;;;;;;80064;256;3027811;-32
2023/03/23 15:41:54;;;;;;;4.70;2.20;;;;;;;;;;80059;256;3027586;-32
2023/03/23 15:44:32;;;;;;;4.30;2.20;;;;;;;;;;80059;256;3031154;-32
2023/03/23 15:47:20;;;;;;;4.10;2.30;;;;;;;;;;80001;256;3032263;-32